Time;durP1;ratioP1;P1;durP2;ratioP2;P2;SDS_P1;SDS_P2;PMS_P1;PMS_P2;Temp;Humidity;BMP_temperature;BMP_pressure;BME280_temperature;BME280_humidity;BME280_pressure;Samples;Min_cycle;Max_cycle;Signal;HPM_P1;HPM_P2
2023/05/02 00:01:35;;;;;;;14.43;13.27;;;;;;;21.77;39.75;95386.78;6184216;28;109270;-68
2023/05/02 00:04:38;;;;;;;13.90;12.70;;;;;;;21.77;39.85;95390.22;6138968;22;110294;-60
2023/05/02 00:07:41;;;;;;;14.70;13.33;;;;;;;21.77;39.60;95390.22;6104244;28;109342;-59
2023/05/02 00:10:44;;;;;;;13.60;12.17;;;;;;;21.78;39.37;95396.34;6105044;28;109234;-60
2023/05/02 00:13:49;;;;;;;13.90;12.60;;;;;;;21.75;39.95;95392.41;6097790;28;109456;-60
2023/05/02 00:16:52;;;;;;;13.90;12.70;;;;;;;21.77;40.10;95392.09;6095553;28;110137;-61
2023/05/02 00:19:55;;;;;;;13.60;12.53;;;;;;;21.70;40.10;95379.19;6101391;28;110254;-60
2023/05/02 00:22:59;;;;;;;13.60;12.30;;;;;;;21.74;39.64;95392.69;6099493;28;108994;-60
2023/05/02 00:26:02;;;;;;;13.10;12.00;;;;;;;21.73;39.98;95393.78;6098486;28;110095;-61
2023/05/02 00:29:07;;;;;;;12.70;11.70;;;;;;;21.73;40.01;95396.44;6094059;28;108819;-60
2023/05/02 00:32:10;;;;;;;12.40;11.40;;;;;;;21.72;39.57;95397.53;6098800;28;110272;-61
2023/05/02 00:35:13;;;;;;;12.40;11.30;;;;;;;21.73;40.18;95410.56;6178772;28;111272;-60
2023/05/02 00:38:16;;;;;;;12.50;11.40;;;;;;;21.72;39.61;95405.53;6112029;28;109135;-60
2023/05/02 00:41:19;;;;;;;12.53;11.47;;;;;;;21.71;39.58;95409.28;6097226;28;110552;-61
2023/05/02 00:44:24;;;;;;;12.37;11.37;;;;;;;21.70;39.71;95416.47;6106382;28;110380;-61
2023/05/02 00:47:27;;;;;;;12.83;11.83;;;;;;;21.71;39.87;95425.25;6104355;28;110214;-60
2023/05/02 00:50:32;;;;;;;12.60;11.60;;;;;;;21.68;40.20;95417.84;6097297;28;109380;-59
2023/05/02 00:53:36;;;;;;;13.00;11.90;;;;;;;21.69;39.83;95424.75;6099188;28;108936;-61
2023/05/02 00:56:39;;;;;;;12.00;11.10;;;;;;;21.70;40.34;95421.00;6108050;28;109371;-61
2023/05/02 00:59:43;;;;;;;12.00;11.00;;;;;;;21.70;39.74;95421.00;6108891;28;109297;-60
2023/05/02 01:02:53;;;;;;;13.07;11.97;;;;;;;21.69;39.92;95416.78;6088750;28;110221;-61
2023/05/02 01:06:05;;;;;;;11.53;10.53;;;;;;;21.68;40.15;95418.66;6128904;28;108963;-60
2023/05/02 01:09:22;;;;;;;12.50;11.40;;;;;;;21.68;39.95;95401.88;6116919;28;110661;-60
2023/05/02 01:12:28;;;;;;;13.00;11.90;;;;;;;21.68;40.13;95407.19;6103285;28;109255;-63
2023/05/02 01:15:35;;;;;;;12.87;11.77;;;;;;;21.55;39.83;95390.09;6101502;28;109352;-60
2023/05/02 01:18:42;;;;;;;12.67;11.57;;;;;;;21.66;39.99;95409.34;6113545;28;110047;-60
2023/05/02 01:21:46;;;;;;;12.60;11.60;;;;;;;21.66;40.21;95406.69;6110775;28;110171;-61
2023/05/02 01:25:00;;;;;;;12.77;11.63;;;;;;;21.66;39.67;95407.47;6106078;27;110304;-63
2023/05/02 01:28:15;;;;;;;11.40;10.40;;;;;;;21.67;40.16;95400.28;6112990;27;109043;-60
2023/05/02 01:31:23;;;;;;;13.03;11.90;;;;;;;21.65;40.15;95400.56;6112913;28;110105;-61
2023/05/02 01:34:28;;;;;;;11.73;10.73;;;;;;;21.64;40.01;95391.00;6116169;28;110840;-60
2023/05/02 01:37:33;;;;;;;11.90;10.90;;;;;;;21.64;40.01;95401.66;6102155;27;109417;-61
2023/05/02 01:40:38;;;;;;;12.17;11.17;;;;;;;21.55;40.03;95382.13;6114327;28;110484;-60
2023/05/02 01:43:42;;;;;;;12.07;11.00;;;;;;;21.63;40.35;95399.28;6109377;28;109037;-60
2023/05/02 01:46:48;;;;;;;11.60;10.60;;;;;;;21.65;39.75;95419.22;6117788;28;109872;-61
2023/05/02 01:49:52;;;;;;;12.00;10.90;;;;;;;21.56;40.11;95396.22;6102684;28;109079;-60
2023/05/02 01:52:57;;;;;;;11.37;10.40;;;;;;;21.65;39.91;95413.88;6109085;28;109912;-61
2023/05/02 01:56:01;;;;;;;12.10;11.07;;;;;;;21.66;40.32;95420.78;6109010;28;109282;-60
2023/05/02 01:59:08;;;;;;;10.83;9.93;;;;;;;21.64;40.34;95420.28;6079701;27;110074;-61
2023/05/02 02:02:14;;;;;;;11.03;10.10;;;;;;;21.61;40.09;95415.56;6127682;28;109242;-60
2023/05/02 02:05:19;;;;;;;11.57;10.67;;;;;;;21.61;39.92;95407.56;6123438;28;108978;-60
2023/05/02 02:08:22;;;;;;;11.27;10.10;;;;;;;21.63;40.37;95408.06;6112258;27;109207;-61
2023/05/02 02:11:33;;;;;;;10.57;9.67;;;;;;;21.60;40.41;95406.00;6113816;28;110364;-61
2023/05/02 02:14:40;;;;;;;11.27;10.17;;;;;;;21.63;40.32;95412.59;6124653;27;108809;-61
2023/05/02 02:17:49;;;;;;;11.57;10.50;;;;;;;21.62;40.02;95411.81;6134918;27;109127;-61
2023/05/02 02:20:54;;;;;;;10.73;9.83;;;;;;;21.61;40.05;95417.44;6120537;27;109045;-62
2023/05/02 02:24:01;;;;;;;10.53;9.53;;;;;;;21.63;39.84;95415.25;6105667;27;110109;-61
2023/05/02 02:27:04;;;;;;;11.37;10.33;;;;;;;21.61;39.81;95414.75;6113716;28;108935;-61
2023/05/02 02:30:09;;;;;;;10.20;9.40;;;;;;;21.51;40.30;95397.13;6122059;28;109635;-61
2023/05/02 02:33:13;;;;;;;10.00;9.10;;;;;;;21.62;40.08;95408.34;6104252;28;109231;-60
2023/05/02 02:36:24;;;;;;;10.03;9.13;;;;;;;21.62;40.17;95413.69;6109246;28;111569;-62
2023/05/02 02:39:40;;;;;;;9.87;9.03;;;;;;;21.62;39.82;95419.00;6109070;28;110262;-61
2023/05/02 02:42:48;;;;;;;10.77;9.87;;;;;;;21.57;40.44;95413.78;6120607;28;109299;-62
2023/05/02 02:46:10;;;;;;;10.30;9.43;;;;;;;21.58;40.07;95418.03;6086853;28;109178;-60
2023/05/02 02:49:29;;;;;;;10.77;9.87;;;;;;;21.61;39.92;95412.09;6097407;28;108954;-60
2023/05/02 02:52:40;;;;;;;9.70;8.80;;;;;;;21.61;39.99;95414.75;6108529;28;109907;-60
2023/05/02 02:55:48;;;;;;;9.17;8.47;;;;;;;21.59;40.32;95417.72;6099203;28;110340;-61
2023/05/02 02:58:57;;;;;;;9.70;8.90;;;;;;;21.59;40.29;95416.94;6108271;28;109193;-61
2023/05/02 03:02:05;;;;;;;9.00;8.30;;;;;;;21.46;40.25;95397.97;6111279;28;110914;-60
2023/05/02 03:05:11;;;;;;;10.10;9.20;;;;;;;21.59;40.00;95420.38;6115790;28;110944;-60
2023/05/02 03:08:15;;;;;;;9.70;8.90;;;;;;;21.58;40.21;95434.00;6104054;28;111437;-60
2023/05/02 03:11:18;;;;;;;9.83;8.97;;;;;;;21.60;40.14;95419.31;6108457;28;110119;-61
2023/05/02 03:14:21;;;;;;;7.87;7.27;;;;;;;21.59;40.25;95425.72;6117865;28;110015;-60
2023/05/02 03:17:24;;;;;;;7.33;6.63;;;;;;;21.47;40.17;95442.16;6109558;28;109195;-60
2023/05/02 03:20:29;;;;;;;6.53;6.03;;;;;;;21.40;39.76;95433.75;6101828;27;109931;-60
2023/05/02 03:23:32;;;;;;;14.43;13.20;;;;;;;21.34;39.33;95442.91;6109165;28;109225;-60
2023/05/02 03:26:35;;;;;;;14.97;13.77;;;;;;;21.32;39.38;95447.72;6112764;28;109823;-63
2023/05/02 03:29:38;;;;;;;14.37;13.17;;;;;;;21.18;39.20;95433.59;6109214;28;110311;-61
2023/05/02 03:32:41;;;;;;;10.20;9.30;;;;;;;21.29;39.36;95455.50;6107687;28;109130;-64
2023/05/02 03:35:46;;;;;;;13.63;12.53;;;;;;;21.32;39.59;95461.03;6128451;28;108804;-66
2023/05/02 03:38:49;;;;;;;8.20;7.53;;;;;;;21.35;39.60;95454.34;6116365;28;109530;-65
2023/05/02 03:41:52;;;;;;;8.13;7.33;;;;;;;21.36;39.64;95453.28;6100251;27;109172;-65
2023/05/02 03:44:56;;;;;;;6.53;6.03;;;;;;;21.19;39.56;95454.59;6116168;27;109315;-61
2023/05/02 03:47:59;;;;;;;8.60;7.03;;;;;;;21.10;39.32;95461.63;6112725;28;109494;-61
2023/05/02 03:51:06;;;;;;;6.47;5.90;;;;;;;21.10;39.60;95460.84;6110509;28;108968;-60
2023/05/02 03:54:09;;;;;;;7.47;6.07;;;;;;;21.04;39.86;95464.63;6103536;27;109020;-62
2023/05/02 03:57:12;;;;;;;7.83;6.53;;;;;;;21.03;40.18;95458.53;6108831;28;109192;-61
2023/05/02 04:00:15;;;;;;;6.10;5.60;;;;;;;20.97;41.19;95456.19;6110197;28;109292;-61
2023/05/02 04:03:18;;;;;;;5.87;5.37;;;;;;;21.17;40.31;95454.09;6110738;28;109312;-62
2023/05/02 04:06:23;;;;;;;5.40;5.00;;;;;;;21.26;39.77;95456.88;6106294;27;110705;-62
2023/05/02 04:09:26;;;;;;;6.33;5.73;;;;;;;21.33;40.91;95462.59;6114821;28;110408;-61
2023/05/02 04:12:29;;;;;;;5.70;5.13;;;;;;;21.39;39.59;95466.00;6124460;28;109101;-62
2023/05/02 04:15:33;;;;;;;6.30;5.20;;;;;;;21.45;40.89;95462.16;6107733;27;111429;-61
2023/05/02 04:18:37;;;;;;;6.07;5.03;;;;;;;21.43;40.89;95467.78;6113158;28;109613;-62
2023/05/02 04:21:41;;;;;;;14.50;5.03;;;;;;;21.18;40.51;95463.66;6112604;28;108917;-61
2023/05/02 04:24:44;;;;;;;5.40;4.37;;;;;;;20.65;40.68;95465.66;6113895;28;109133;-62
2023/05/02 04:27:47;;;;;;;6.00;4.43;;;;;;;20.89;40.70;95466.44;6102351;27;109184;-62
2023/05/02 04:30:50;;;;;;;4.63;4.20;;;;;;;20.76;40.46;95469.78;6112386;28;109004;-61
2023/05/02 04:33:54;;;;;;;4.70;4.30;;;;;;;20.89;40.05;95471.75;6120332;28;109147;-61
2023/05/02 04:36:58;;;;;;;4.60;4.10;;;;;;;20.77;40.05;95482.00;6137221;28;111014;-68
2023/05/02 04:40:02;;;;;;;8.50;4.50;;;;;;;20.88;40.05;95467.50;6125937;28;109187;-67
2023/05/02 04:43:05;;;;;;;4.70;4.30;;;;;;;20.97;39.61;95477.50;6137249;27;108956;-67
2023/05/02 04:46:08;;;;;;;4.87;4.10;;;;;;;21.01;39.34;95473.19;6136771;28;110056;-66
2023/05/02 04:49:11;;;;;;;4.30;4.00;;;;;;;21.08;39.43;95485.06;6131742;27;109102;-67
2023/05/02 04:52:16;;;;;;;4.30;4.00;;;;;;;21.09;39.88;95483.22;6132236;27;109306;-66
2023/05/02 04:55:19;;;;;;;4.77;4.03;;;;;;;21.07;40.62;95482.72;6137395;27;109076;-65
2023/05/02 04:58:22;;;;;;;5.13;4.40;;;;;;;21.08;40.08;95485.06;6136703;28;110131;-65
2023/05/02 05:01:26;;;;;;;4.17;3.77;;;;;;;21.13;40.75;95481.53;6126647;27;109292;-67
2023/05/02 05:04:29;;;;;;;4.53;4.23;;;;;;;21.14;41.14;95483.91;6123329;28;109251;-67
2023/05/02 05:07:34;;;;;;;5.23;4.10;;;;;;;20.93;39.36;95486.03;6113971;28;109199;-68
2023/05/02 05:10:39;;;;;;;4.17;3.87;;;;;;;21.02;39.30;95480.88;6118892;28;108909;-68
2023/05/02 05:13:42;;;;;;;10.30;4.03;;;;;;;20.85;39.92;95483.25;6105774;28;109073;-61
2023/05/02 05:16:45;;;;;;;5.13;3.70;;;;;;;20.77;40.02;95482.00;6124940;27;109055;-59
2023/05/02 05:19:48;;;;;;;4.17;3.77;;;;;;;20.82;39.55;95481.94;6111806;28;109002;-62
2023/05/02 05:22:53;;;;;;;6.03;5.20;;;;;;;20.89;39.32;95478.94;6124812;28;109024;-62
2023/05/02 05:25:56;;;;;;;6.63;4.37;;;;;;;20.91;39.09;95474.91;6113674;27;109118;-62
2023/05/02 05:28:59;;;;;;;6.40;4.53;;;;;;;20.97;39.07;95483.59;6135185;28;110088;-61
2023/05/02 05:32:02;;;;;;;4.87;4.47;;;;;;;21.01;39.15;95489.94;6111613;27;109223;-61
2023/05/02 05:35:06;;;;;;;4.37;3.97;;;;;;;21.08;39.09;95493.06;6122533;28;109529;-61
2023/05/02 05:38:11;;;;;;;4.57;4.13;;;;;;;21.09;39.00;95493.84;6123620;28;109986;-61
2023/05/02 05:41:14;;;;;;;4.93;4.60;;;;;;;21.01;39.05;95491.81;6122956;28;109010;-62
2023/05/02 05:44:17;;;;;;;7.23;4.03;;;;;;;21.14;39.02;95494.56;6088315;28;110068;-62
2023/05/02 05:47:21;;;;;;;4.77;4.37;;;;;;;21.08;38.79;95476.31;6108843;27;109459;-59
2023/05/02 05:50:24;;;;;;;5.13;4.73;;;;;;;21.29;38.66;95490.09;6122548;28;108993;-59
2023/05/02 05:53:29;;;;;;;4.87;4.20;;;;;;;21.35;39.89;95492.41;6123501;28;109122;-59
2023/05/02 05:56:32;;;;;;;5.33;4.20;;;;;;;21.41;39.03;95496.56;6122750;27;109062;-59
2023/05/02 05:59:35;;;;;;;4.67;3.50;;;;;;;21.47;39.24;95491.94;6106902;28;111250;-59
2023/05/02 06:02:38;;;;;;;4.37;4.00;;;;;;;21.51;38.97;95499.09;6112750;27;109258;-60
2023/05/02 06:05:42;;;;;;;3.60;3.40;;;;;;;21.57;38.76;95499.00;6120374;28;109254;-60
2023/05/02 06:08:46;;;;;;;4.70;4.40;;;;;;;21.61;38.44;95502.66;6108175;28;110042;-61
2023/05/02 06:11:49;;;;;;;5.27;4.40;;;;;;;21.70;40.42;95512.38;6120947;28;109094;-59
2023/05/02 06:14:52;;;;;;;4.30;4.00;;;;;;;21.70;39.52;95496.38;6106605;28;109562;-59
2023/05/02 06:17:55;;;;;;;5.80;4.47;;;;;;;21.81;38.80;95499.66;6099736;28;109315;-59
2023/05/02 06:21:03;;;;;;;4.13;3.90;;;;;;;21.85;39.04;95490.03;6093415;28;110083;-59
2023/05/02 06:24:08;;;;;;;4.73;4.43;;;;;;;21.84;38.41;95484.97;6111775;28;109672;-59
2023/05/02 06:27:11;;;;;;;4.40;4.10;;;;;;;21.92;38.77;95497.63;6106546;28;110068;-61
2023/05/02 06:30:14;;;;;;;3.77;3.57;;;;;;;22.00;38.35;95495.06;6108439;28;109180;-60
2023/05/02 06:33:17;;;;;;;4.17;3.87;;;;;;;22.03;38.24;95493.72;6101383;27;110275;-60
2023/05/02 06:36:20;;;;;;;5.67;4.53;;;;;;;21.69;37.10;95484.16;6105944;28;110032;-59
2023/05/02 06:39:25;;;;;;;13.53;5.20;;;;;;;21.65;37.87;95483.13;6111415;28;108998;-61
2023/05/02 06:42:28;;;;;;;5.27;4.00;;;;;;;21.88;37.87;95473.47;6118370;28;109087;-60
2023/05/02 06:45:31;;;;;;;4.77;3.57;;;;;;;22.00;37.47;95487.09;6110746;27;109181;-61
2023/05/02 06:48:35;;;;;;;4.43;3.23;;;;;;;22.09;36.79;95485.34;6105640;28;109969;-61
2023/05/02 06:51:38;;;;;;;3.80;3.40;;;;;;;22.13;37.15;95482.88;6112891;28;108790;-61
2023/05/02 06:54:43;;;;;;;12.00;4.47;;;;;;;22.07;37.26;95463.53;6102825;28;109137;-61
2023/05/02 06:57:46;;;;;;;11.10;4.43;;;;;;;22.26;37.12;95478.63;6125631;27;109043;-65
2023/05/02 07:00:49;;;;;;;19.20;5.27;;;;;;;22.24;36.71;95478.94;6110360;28;111233;-60
2023/05/02 07:03:53;;;;;;;13.50;4.57;;;;;;;22.21;37.26;95476.06;6121610;28;108994;-60
2023/05/02 07:06:56;;;;;;;18.17;4.87;;;;;;;22.26;36.70;95465.31;6102292;28;109065;-60
2023/05/02 07:10:00;;;;;;;20.27;5.70;;;;;;;22.30;36.42;95475.06;6136837;27;108989;-60
2023/05/02 07:13:04;;;;;;;13.23;4.47;;;;;;;22.31;36.49;95479.31;6123115;28;110052;-60
2023/05/02 07:16:07;;;;;;;7.40;3.90;;;;;;;22.33;36.49;95471.81;6137352;27;109079;-60
2023/05/02 07:19:11;;;;;;;6.60;4.40;;;;;;;22.35;36.10;95480.31;6113797;28;109001;-60
2023/05/02 07:22:15;;;;;;;8.53;3.57;;;;;;;22.32;35.96;95485.44;6137874;28;110390;-60
2023/05/02 07:25:20;;;;;;;6.27;3.70;;;;;;;22.37;35.39;95480.81;6122381;28;109165;-60
2023/05/02 07:28:23;;;;;;;6.43;4.33;;;;;;;22.42;35.46;95474.59;6111883;28;109126;-60
2023/05/02 07:31:26;;;;;;;4.47;3.50;;;;;;;22.48;35.18;95481.38;6137242;27;109050;-60
2023/05/02 07:34:29;;;;;;;33.57;7.80;;;;;;;22.40;35.40;95474.88;6126695;27;109058;-60
2023/05/02 07:37:34;;;;;;;249.53;32.70;;;;;;;22.34;35.40;95473.38;6112879;28;109005;-62
2023/05/02 07:40:38;;;;;;;79.13;14.87;;;;;;;22.33;35.68;95473.69;6102788;28;109070;-60
2023/05/02 07:43:41;;;;;;;112.10;16.43;;;;;;;22.38;35.47;95484.28;6130112;28;111458;-60
2023/05/02 07:46:44;;;;;;;43.30;10.73;;;;;;;22.47;34.88;95489.69;6134464;28;110094;-60
2023/05/02 07:49:51;;;;;;;37.47;9.10;;;;;;;22.33;35.44;95460.34;6132818;27;110100;-60
2023/05/02 07:52:55;;;;;;;33.70;7.60;;;;;;;22.51;34.38;95478.13;6099208;28;109075;-60
2023/05/02 07:55:59;;;;;;;30.87;6.87;;;;;;;22.53;34.73;95475.19;6109534;28;109943;-60
2023/05/02 07:59:02;;;;;;;27.07;6.30;;;;;;;22.57;34.45;95487.66;6130732;28;109144;-60
2023/05/02 08:02:07;;;;;;;21.77;6.10;;;;;;;22.63;33.90;95483.78;6107015;28;109268;-60
2023/05/02 08:05:10;;;;;;;20.37;6.07;;;;;;;22.65;34.03;95470.94;6124559;28;111231;-60
2023/05/02 08:08:14;;;;;;;11.40;5.73;;;;;;;22.68;33.91;95481.03;6118242;28;110225;-61
2023/05/02 08:11:19;;;;;;;36.23;8.80;;;;;;;22.59;34.28;95476.69;6112860;28;110029;-60
2023/05/02 08:14:24;;;;;;;18.33;4.87;;;;;;;22.53;34.09;95481.31;6102414;28;109187;-61
2023/05/02 08:17:27;;;;;;;27.83;7.00;;;;;;;22.64;33.99;95468.56;6122745;28;109061;-60
2023/05/02 08:20:31;;;;;;;22.27;7.30;;;;;;;22.69;33.74;95465.81;6136440;27;110704;-60
2023/05/02 08:23:34;;;;;;;20.37;6.03;;;;;;;22.69;33.49;95474.59;6136802;28;108997;-61
2023/05/02 08:26:39;;;;;;;12.43;4.00;;;;;;;22.64;33.46;95464.03;6126585;27;108985;-61
2023/05/02 08:29:42;;;;;;;12.70;3.80;;;;;;;22.70;32.96;95470.06;6112832;28;110010;-61
2023/05/02 08:32:45;;;;;;;11.80;5.20;;;;;;;22.66;33.63;95475.19;6112977;28;110016;-60
2023/05/02 08:35:49;;;;;;;11.50;5.23;;;;;;;22.58;33.22;95456.44;6115431;28;109094;-60
2023/05/02 08:38:52;;;;;;;9.87;4.10;;;;;;;22.63;32.95;95459.78;6106632;28;110546;-60
2023/05/02 08:41:56;;;;;;;9.33;4.57;;;;;;;22.60;33.57;95464.91;6126571;28;109559;-60
2023/05/02 08:45:01;;;;;;;5.90;3.23;;;;;;;22.55;33.05;95467.69;6114935;27;109414;-60
2023/05/02 08:48:09;;;;;;;14.57;4.60;;;;;;;22.47;32.67;95476.34;6102086;28;110360;-64
2023/05/02 08:51:14;;;;;;;8.83;3.93;;;;;;;22.41;33.04;95465.00;6112145;28;110115;-65
2023/05/02 08:54:20;;;;;;;15.00;4.10;;;;;;;22.52;31.93;95465.59;6112644;28;108793;-66
2023/05/02 08:57:25;;;;;;;6.73;3.57;;;;;;;22.53;32.84;95459.19;6112708;28;109272;-64
2023/05/02 09:00:29;;;;;;;10.47;4.70;;;;;;;22.41;32.33;95483.69;6118902;28;109042;-63
2023/05/02 09:03:34;;;;;;;4.50;3.20;;;;;;;22.07;32.14;95446.75;6129969;28;109101;-63
2023/05/02 09:06:37;;;;;;;4.50;3.40;;;;;;;22.37;32.10;95450.69;6117333;28;111238;-60
2023/05/02 09:09:40;;;;;;;4.70;3.73;;;;;;;22.54;32.45;95458.88;6123314;28;109848;-61
2023/05/02 09:12:45;;;;;;;12.10;3.00;;;;;;;22.54;32.63;95456.22;6113096;28;109777;-61
2023/05/02 09:15:58;;;;;;;3.60;2.80;;;;;;;22.64;32.39;95445.34;6135056;27;109086;-60
2023/05/02 09:19:01;;;;;;;8.17;3.47;;;;;;;22.62;32.14;95438.72;6114430;28;110165;-61
2023/05/02 09:22:04;;;;;;;3.97;3.20;;;;;;;22.69;32.71;95450.59;6108289;28;110193;-61
2023/05/02 09:25:08;;;;;;;3.83;3.00;;;;;;;22.68;32.42;95443.69;6121146;28;109802;-61
2023/05/02 09:28:13;;;;;;;3.63;3.33;;;;;;;22.69;32.41;95442.59;6111246;28;109186;-61
2023/05/02 09:31:17;;;;;;;257.73;36.87;;;;;;;22.67;32.32;95442.06;6120984;28;109008;-61
2023/05/02 09:34:36;;;;;;;48.80;10.23;;;;;;;22.62;32.49;95446.75;6109792;27;109129;-59
2023/05/02 09:37:39;;;;;;;39.00;9.73;;;;;;;22.59;31.89;95432.13;6113520;28;109250;-61
2023/05/02 09:40:53;;;;;;;42.60;8.50;;;;;;;22.56;31.85;95435.38;6119272;28;109275;-58
2023/05/02 09:43:58;;;;;;;22.43;7.37;;;;;;;22.55;32.13;95435.66;6110641;28;109364;-60
2023/05/02 09:47:01;;;;;;;24.73;6.30;;;;;;;22.56;32.20;95443.38;6117619;28;109123;-60
2023/05/02 09:50:08;;;;;;;17.20;4.20;;;;;;;22.54;31.80;95432.22;6113480;28;109087;-60
2023/05/02 09:53:11;;;;;;;13.37;4.17;;;;;;;22.55;31.92;95425.00;6133456;28;109250;-60
2023/05/02 09:56:14;;;;;;;64.77;11.40;;;;;;;22.30;31.99;95391.63;6104773;27;109078;-61
2023/05/02 09:59:18;;;;;;;21.73;5.43;;;;;;;22.47;31.75;95407.81;6108138;28;109231;-61
2023/05/02 10:02:23;;;;;;;31.80;5.10;;;;;;;22.53;30.95;95409.28;6120392;27;109238;-59
2023/05/02 10:05:29;;;;;;;27.07;6.20;;;;;;;22.53;31.38;95416.50;6114440;28;108951;-59
2023/05/02 10:08:36;;;;;;;23.50;6.70;;;;;;;22.51;31.22;95414.13;6106095;28;109064;-59
2023/05/02 10:11:41;;;;;;;19.20;6.17;;;;;;;22.46;30.76;95400.91;6110206;28;109253;-59
2023/05/02 10:14:50;;;;;;;19.07;5.23;;;;;;;22.51;30.94;95403.44;6108898;28;110190;-59
2023/05/02 10:17:58;;;;;;;23.80;4.80;;;;;;;22.59;31.06;95399.31;6113443;28;109337;-59
2023/05/02 10:21:08;;;;;;;15.77;4.40;;;;;;;22.63;31.33;95400.31;6101746;28;108968;-60
2023/05/02 10:24:12;;;;;;;20.23;5.27;;;;;;;22.64;31.19;95392.00;6120086;28;111240;-60
2023/05/02 10:27:15;;;;;;;19.90;4.87;;;;;;;22.68;31.80;95393.00;6123287;28;109357;-59
2023/05/02 10:30:20;;;;;;;15.43;4.70;;;;;;;22.66;31.59;95403.16;6099809;27;109214;-60
2023/05/02 10:33:23;;;;;;;12.63;4.53;;;;;;;22.65;31.11;95392.78;6111033;28;110040;-59
2023/05/02 10:36:28;;;;;;;10.10;3.60;;;;;;;22.62;31.30;95378.16;6111356;28;109088;-60
2023/05/02 10:39:32;;;;;;;9.27;4.13;;;;;;;22.56;31.30;95378.56;6111098;28;109617;-60
2023/05/02 10:42:38;;;;;;;10.90;3.67;;;;;;;22.54;31.45;95386.09;6113314;28;110043;-65
2023/05/02 10:45:43;;;;;;;16.83;3.53;;;;;;;22.49;30.92;95383.50;6122349;28;111413;-65
2023/05/02 10:49:00;;;;;;;30.93;6.07;;;;;;;22.48;30.79;95377.38;6102146;28;109232;-66
2023/05/02 10:52:25;;;;;;;16.63;4.33;;;;;;;22.42;30.79;95362.59;6109912;28;109103;-64
2023/05/02 10:55:30;;;;;;;13.67;3.90;;;;;;;22.41;30.95;95363.69;6113394;28;108935;-65
2023/05/02 10:58:33;;;;;;;16.67;4.63;;;;;;;22.45;30.92;95366.53;6113158;28;109218;-59
2023/05/02 11:01:38;;;;;;;13.07;4.60;;;;;;;22.49;31.10;95376.28;6110777;28;109056;-59
2023/05/02 11:05:02;;;;;;;8.93;4.40;;;;;;;22.42;31.33;95355.38;6098210;27;110157;-59
2023/05/02 11:08:31;;;;;;;5.10;3.50;;;;;;;22.50;31.29;95364.53;6111380;28;109053;-60
2023/05/02 11:11:42;;;;;;;4.40;3.67;;;;;;;22.53;31.02;95373.84;6109924;28;110005;-61
2023/05/02 11:14:47;;;;;;;7.60;3.43;;;;;;;22.51;31.36;95360.78;6109446;28;109182;-61
2023/05/02 11:18:01;;;;;;;5.73;3.53;;;;;;;22.47;31.06;95367.81;6117438;28;109027;-60
2023/05/02 11:21:27;;;;;;;11.60;3.30;;;;;;;22.48;31.14;95360.59;6110134;28;109138;-60
2023/05/02 11:24:41;;;;;;;21.13;5.20;;;;;;;22.36;31.48;95339.81;6124071;28;109256;-61
2023/05/02 11:27:46;;;;;;;15.80;4.67;;;;;;;22.47;31.75;95346.47;6094938;28;109188;-60
2023/05/02 11:30:49;;;;;;;15.13;5.30;;;;;;;22.48;31.20;95366.72;6130135;28;109315;-60
2023/05/02 11:33:58;;;;;;;14.07;3.80;;;;;;;22.46;31.62;95358.22;6122957;27;108981;-60
2023/05/02 11:37:10;;;;;;;11.23;3.50;;;;;;;22.43;32.00;95353.50;6126802;28;109208;-60
2023/05/02 11:40:14;;;;;;;8.60;4.10;;;;;;;22.41;31.73;95348.47;6098605;28;109091;-61
2023/05/02 11:43:20;;;;;;;7.20;3.03;;;;;;;22.41;31.48;95342.34;6111461;28;109223;-59
2023/05/02 11:46:23;;;;;;;4.30;2.70;;;;;;;22.38;31.88;95343.75;6124615;28;110068;-60
2023/05/02 11:49:28;;;;;;;6.83;2.97;;;;;;;22.37;31.64;95341.38;6128774;27;109007;-60
2023/05/02 11:52:36;;;;;;;5.60;3.50;;;;;;;22.39;31.51;95336.53;6106326;27;109172;-60
2023/05/02 11:55:45;;;;;;;4.13;3.60;;;;;;;22.41;31.57;95342.34;6115393;28;109321;-60
2023/05/02 11:58:58;;;;;;;6.03;3.77;;;;;;;22.28;31.43;95324.50;6117376;28;110078;-60
2023/05/02 12:02:01;;;;;;;5.63;2.97;;;;;;;22.38;31.81;95329.63;6115691;28;110259;-60
2023/05/02 12:05:08;;;;;;;3.53;3.23;;;;;;;22.36;31.70;95329.91;6121554;28;109221;-60
2023/05/02 12:08:19;;;;;;;3.60;2.87;;;;;;;22.33;31.51;95313.72;6108792;28;108774;-60
2023/05/02 12:11:23;;;;;;;4.40;3.10;;;;;;;22.35;31.74;95308.91;6128590;28;109108;-61
2023/05/02 12:14:31;;;;;;;3.13;2.40;;;;;;;22.35;31.45;95309.69;6126749;28;109737;-60
2023/05/02 12:17:37;;;;;;;3.33;2.70;;;;;;;22.30;31.62;95287.66;6125239;27;110187;-60
2023/05/02 12:20:42;;;;;;;3.33;2.83;;;;;;;22.39;31.42;95296.53;6113591;28;109080;-60
2023/05/02 12:23:46;;;;;;;6.77;3.00;;;;;;;22.39;31.88;95293.88;6119009;28;110635;-61
2023/05/02 12:26:51;;;;;;;13.13;3.37;;;;;;;22.40;31.86;95300.78;6119853;28;109970;-60
2023/05/02 12:29:56;;;;;;;3.10;2.60;;;;;;;22.37;31.72;95301.38;6124610;28;109246;-60
2023/05/02 12:33:00;;;;;;;5.00;2.63;;;;;;;22.35;31.79;95307.00;6123151;28;111397;-60
2023/05/02 12:36:09;;;;;;;4.43;2.60;;;;;;;22.19;31.30;95263.13;6108096;27;109325;-60
2023/05/02 12:39:12;;;;;;;6.30;2.90;;;;;;;22.33;31.57;95287.84;6114400;28;110201;-60
2023/05/02 12:42:17;;;;;;;3.90;2.90;;;;;;;22.33;31.21;95274.50;6117536;28;109313;-60
2023/05/02 12:45:20;;;;;;;4.90;2.87;;;;;;;22.33;31.46;95268.38;6118547;28;112282;-60
2023/05/02 12:48:25;;;;;;;3.70;3.40;;;;;;;22.35;31.55;95268.91;6122485;27;108997;-60
2023/05/02 12:51:31;;;;;;;4.10;2.70;;;;;;;22.33;31.64;95263.06;6122391;27;109146;-60
2023/05/02 12:54:34;;;;;;;3.30;2.90;;;;;;;22.39;31.57;95264.53;6131636;28;110803;-60
2023/05/02 12:57:38;;;;;;;4.30;2.33;;;;;;;22.32;31.20;95264.94;6123748;28;110362;-61
2023/05/02 13:00:42;;;;;;;2.80;2.60;;;;;;;22.33;31.70;95252.38;6117685;28;109154;-61
2023/05/02 13:03:51;;;;;;;3.43;2.47;;;;;;;22.27;31.11;95269.59;6119784;28;109959;-58
2023/05/02 13:06:55;;;;;;;2.40;2.20;;;;;;;22.30;31.20;95280.44;6104213;28;108955;-60
2023/05/02 13:09:59;;;;;;;2.27;2.07;;;;;;;22.28;30.93;95277.28;6102295;28;109463;-60
2023/05/02 13:13:02;;;;;;;2.77;2.57;;;;;;;22.27;31.17;95274.94;6112051;28;109081;-58
2023/05/02 13:16:06;;;;;;;3.20;2.40;;;;;;;22.24;31.42;95265.66;6113649;28;110710;-58
2023/05/02 13:19:10;;;;;;;4.73;3.30;;;;;;;22.20;30.92;95275.34;6120656;27;109168;-58
2023/05/02 13:22:15;;;;;;;6.57;3.30;;;;;;;22.26;30.93;95270.69;6112236;28;109596;-58
2023/05/02 13:25:18;;;;;;;2.63;2.43;;;;;;;22.26;31.25;95263.47;6111452;28;109993;-59
2023/05/02 13:28:21;;;;;;;2.53;2.23;;;;;;;22.23;30.58;95253.44;6124139;28;109194;-59
2023/05/02 13:31:24;;;;;;;3.70;2.70;;;;;;;22.34;30.47;95277.97;6110704;27;109047;-59
2023/05/02 13:34:27;;;;;;;2.97;2.77;;;;;;;22.29;30.53;95272.75;6105558;28;108975;-59
2023/05/02 13:37:32;;;;;;;3.30;2.80;;;;;;;22.25;30.98;95263.78;6112420;28;109036;-59
2023/05/02 13:40:35;;;;;;;2.53;2.33;;;;;;;22.25;31.10;95269.13;6113267;28;108970;-58
2023/05/02 13:43:39;;;;;;;2.63;2.43;;;;;;;22.19;30.93;95273.00;6102337;28;110304;-59
2023/05/02 13:46:43;;;;;;;2.30;2.10;;;;;;;22.23;30.49;95268.63;6115311;28;110134;-59
2023/05/02 13:49:46;;;;;;;2.83;2.43;;;;;;;22.21;30.28;95268.16;6110940;28;109022;-58
2023/05/02 13:52:50;;;;;;;2.40;2.20;;;;;;;22.20;29.99;95266.56;6110647;28;110210;-58
2023/05/02 13:55:53;;;;;;;2.03;1.83;;;;;;;22.18;30.70;95260.72;6094983;27;110825;-59
2023/05/02 13:58:57;;;;;;;2.03;1.93;;;;;;;22.20;30.90;95250.59;6127900;28;109331;-58
2023/05/02 14:02:00;;;;;;;14.17;2.80;;;;;;;22.21;30.15;95260.16;6117018;28;110148;-59
2023/05/02 14:05:03;;;;;;;5.20;2.83;;;;;;;22.21;30.26;95258.28;6113440;28;110552;-58
2023/05/02 14:08:07;;;;;;;4.20;2.60;;;;;;;22.22;30.33;95264.38;6100044;28;109260;-59
2023/05/02 14:11:11;;;;;;;17.97;4.07;;;;;;;22.17;30.23;95267.94;6120013;28;109150;-59
2023/05/02 14:14:14;;;;;;;6.80;2.53;;;;;;;22.12;30.31;95268.06;6115515;28;108871;-58